Terminal Aerodrome Forecast
Issued by NWS

Home | Current Version | Previous Version | Text Only | Print | Product List | Glossary On
Versions: 1 2 3 4 5 6 7 8 9 10 11 12 13 14
000
FTUS46 KHNX 092320
TAFBFL
TAF
KBFL 092320Z 1000/1024 32005KT P6SM SKC
     FM100500 VRB04KT P6SM SCT050 OVC100
     FM101200 09008KT P6SM SCT025 OVC050
      TEMPO 1014/1018 4SM -RA BR OVC020
     FM101800 VRB04KT 4SM -SHRA BR OVC020=

USA.gov is the U.S. government's official web portal to all federal, state and local government web resources and services.